createdAt,value
2018-07-11T00:00:38.199Z,1.80
2018-07-11T00:02:43.583Z,2.17
2018-07-11T00:04:48.977Z,1.87
2018-07-11T00:06:55.551Z,1.67
2018-07-11T00:09:00.867Z,1.62
2018-07-11T00:11:06.157Z,1.70
2018-07-11T00:13:11.503Z,1.80
2018-07-11T00:15:17.332Z,1.73
2018-07-11T00:17:22.522Z,1.90
2018-07-11T00:19:27.909Z,2.10
2018-07-11T00:21:33.260Z,2.10
2018-07-11T00:23:38.765Z,2.10
2018-07-11T00:25:44.098Z,1.90
2018-07-11T00:27:49.391Z,1.87
2018-07-11T00:29:55.996Z,1.84
2018-07-11T00:32:01.362Z,1.92
2018-07-11T00:34:06.720Z,1.83
2018-07-11T00:36:12.120Z,2.20
2018-07-11T00:38:17.473Z,2.10
2018-07-11T00:40:22.866Z,2.20
2018-07-11T00:42:27.864Z,1.97
2018-07-11T00:44:33.262Z,2.20
2018-07-11T00:46:38.621Z,2.30
2018-07-11T00:48:44.048Z,2.27
2018-07-11T00:50:50.023Z,2.50
2018-07-11T00:52:55.528Z,2.23
2018-07-11T00:55:00.851Z,2.40
2018-07-11T00:57:06.245Z,1.87
2018-07-11T00:59:21.526Z,2.63
2018-07-11T01:01:26.899Z,2.57
2018-07-11T01:03:32.386Z,2.40
2018-07-11T01:05:37.827Z,2.53
2018-07-11T01:07:44.100Z,2.10
2018-07-11T01:09:50.748Z,2.53
2018-07-11T01:11:56.164Z,2.53
2018-07-11T01:14:01.497Z,2.10
2018-07-11T01:16:07.208Z,1.90
2018-07-11T01:18:13.727Z,2.10
2018-07-11T01:20:19.074Z,1.97
2018-07-11T01:22:24.375Z,2.33
2018-07-11T01:24:30.792Z,2.20
2018-07-11T01:26:37.181Z,2.60
2018-07-11T01:28:42.520Z,2.27
2018-07-11T01:30:47.848Z,2.40
2018-07-11T01:32:53.216Z,2.57
2018-07-11T01:34:58.187Z,2.40
2018-07-11T01:37:03.528Z,2.40
2018-07-11T01:39:08.810Z,2.25
2018-07-11T01:41:14.397Z,2.30
2018-07-11T01:43:19.759Z,2.40
2018-07-11T01:45:25.075Z,2.60
2018-07-11T01:47:30.497Z,2.80
2018-07-11T01:49:35.900Z,2.20
2018-07-11T01:53:49.771Z,2.30
2018-07-11T01:55:55.957Z,2.77
2018-07-11T01:58:01.830Z,2.15
2018-07-11T02:00:07.235Z,3.00
2018-07-11T02:02:12.653Z,2.52
2018-07-11T02:04:18.038Z,2.40
2018-07-11T02:06:23.410Z,2.30
2018-07-11T02:08:28.787Z,2.50
2018-07-11T02:10:34.154Z,2.30
2018-07-11T02:12:40.459Z,2.40
2018-07-11T02:14:49.844Z,2.50
2018-07-11T02:16:56.427Z,2.47
2018-07-11T02:19:01.858Z,2.33
2018-07-11T02:21:07.767Z,2.40
2018-07-11T02:23:13.121Z,2.47
2018-07-11T02:25:19.037Z,2.43
2018-07-11T02:27:24.391Z,2.70
2018-07-11T02:29:29.756Z,2.67
2018-07-11T02:31:35.216Z,2.70
2018-07-11T02:33:40.557Z,3.10
2018-07-11T02:35:45.928Z,3.00
2018-07-11T02:37:51.437Z,2.57
2018-07-11T02:39:56.844Z,2.70
2018-07-11T02:42:02.185Z,2.20
2018-07-11T02:44:07.626Z,3.20
2018-07-11T02:46:13.077Z,2.67
2018-07-11T02:48:18.411Z,2.90
2018-07-11T02:50:23.943Z,3.10
2018-07-11T02:52:29.486Z,2.83
2018-07-11T02:54:34.980Z,3.20
2018-07-11T02:56:40.381Z,2.87
2018-07-11T02:58:46.053Z,2.60
2018-07-11T03:00:51.403Z,2.90
2018-07-11T03:02:56.716Z,2.80
2018-07-11T03:05:02.092Z,2.87
2018-07-11T03:07:08.622Z,2.90
2018-07-11T03:09:13.940Z,2.50
2018-07-11T03:11:19.254Z,3.40
2018-07-11T03:13:24.588Z,2.90
2018-07-11T03:15:30.145Z,3.07
2018-07-11T03:17:35.543Z,2.97
2018-07-11T03:19:40.956Z,3.33
2018-07-11T03:21:46.355Z,3.00
2018-07-11T03:23:51.684Z,2.97
2018-07-11T03:25:57.010Z,2.60
2018-07-11T03:28:02.419Z,2.60
2018-07-11T03:30:07.880Z,3.00
2018-07-11T03:32:13.223Z,3.73
2018-07-11T03:34:18.594Z,3.17
2018-07-11T03:36:23.924Z,3.50
2018-07-11T03:38:29.609Z,3.30
2018-07-11T03:40:35.048Z,3.30
2018-07-11T03:42:40.336Z,3.27
2018-07-11T03:44:45.739Z,2.80
2018-07-11T03:46:51.093Z,3.70
2018-07-11T03:48:56.474Z,3.30
2018-07-11T03:51:02.023Z,2.90
2018-07-11T03:53:07.389Z,3.12
2018-07-11T03:55:12.852Z,3.20
2018-07-11T03:57:18.140Z,3.23
2018-07-11T03:59:23.417Z,3.37
2018-07-11T04:01:28.765Z,2.87
2018-07-11T04:03:33.766Z,2.87
2018-07-11T04:05:39.029Z,3.23
2018-07-11T04:07:44.501Z,3.60
2018-07-11T04:09:49.812Z,3.50
2018-07-11T04:11:56.159Z,3.37
2018-07-11T04:14:01.536Z,3.47
2018-07-11T04:16:06.959Z,3.58
2018-07-11T04:18:17.547Z,2.90
2018-07-11T04:20:22.925Z,3.27
2018-07-11T04:22:28.276Z,3.10
2018-07-11T04:24:33.567Z,3.20
2018-07-11T04:26:39.036Z,3.20
2018-07-11T04:28:44.669Z,3.70
2018-07-11T04:30:50.121Z,3.13
2018-07-11T04:32:56.203Z,3.57
2018-07-11T04:35:01.555Z,3.40
2018-07-11T04:37:07.060Z,3.27
2018-07-11T04:39:12.426Z,3.40
2018-07-11T04:41:17.801Z,2.70
2018-07-11T04:43:25.420Z,3.20
2018-07-11T04:45:30.785Z,3.17
2018-07-11T04:47:36.328Z,3.57
2018-07-11T04:49:41.719Z,3.50
2018-07-11T04:51:47.451Z,3.20
2018-07-11T04:53:54.295Z,3.63
2018-07-11T04:56:02.639Z,3.50
2018-07-11T04:58:08.200Z,3.35
2018-07-11T05:00:13.536Z,3.05
2018-07-11T05:02:19.091Z,2.93
2018-07-11T05:04:24.480Z,3.10
2018-07-11T05:06:29.794Z,4.00
2018-07-11T05:08:35.060Z,3.90
2018-07-11T05:10:40.381Z,3.70
2018-07-11T05:12:45.708Z,2.90
2018-07-11T05:14:51.107Z,4.17
2018-07-11T05:16:56.440Z,4.00
2018-07-11T05:19:01.752Z,3.70
2018-07-11T05:21:07.107Z,3.90
2018-07-11T05:23:12.576Z,4.08
2018-07-11T05:25:17.912Z,4.00
2018-07-11T05:27:23.255Z,3.57
2018-07-11T05:29:28.551Z,3.97
2018-07-11T05:31:33.858Z,3.87
2018-07-11T05:33:39.172Z,3.80
2018-07-11T05:35:44.499Z,3.67
2018-07-11T05:37:49.879Z,4.20
2018-07-11T05:39:56.462Z,4.40
2018-07-11T05:42:01.921Z,3.87
2018-07-11T05:44:07.261Z,3.90
2018-07-11T05:46:12.758Z,3.60
2018-07-11T05:48:18.238Z,4.97
2018-07-11T05:50:23.551Z,4.17
2018-07-11T05:52:29.146Z,3.77
2018-07-11T05:54:35.056Z,4.30
2018-07-11T05:56:40.427Z,3.70
2018-07-11T05:58:45.950Z,4.10
2018-07-11T06:00:51.001Z,4.27
2018-07-11T06:02:56.295Z,4.90
2018-07-11T06:05:01.684Z,3.87
2018-07-11T06:07:07.104Z,4.10
2018-07-11T06:09:12.628Z,3.77
2018-07-11T06:11:24.321Z,4.00
2018-07-11T06:13:29.773Z,5.17
2018-07-11T06:15:35.228Z,4.30
2018-07-11T06:17:40.643Z,4.57
2018-07-11T06:19:45.961Z,3.87
2018-07-11T06:21:51.869Z,4.20
2018-07-11T06:23:57.398Z,3.43
2018-07-11T06:26:02.811Z,3.67
2018-07-11T06:28:08.282Z,4.05
2018-07-11T06:30:13.577Z,3.90
2018-07-11T06:32:18.932Z,4.20
2018-07-11T06:34:24.310Z,4.03
2018-07-11T06:36:29.798Z,5.40
2018-07-11T06:38:35.123Z,4.37
2018-07-11T06:40:40.500Z,4.47
2018-07-11T06:42:45.892Z,3.83
2018-07-11T06:44:51.331Z,3.80
2018-07-11T06:46:56.650Z,5.17
2018-07-11T06:49:01.739Z,4.05
2018-07-11T06:51:07.036Z,4.67
2018-07-11T06:53:12.377Z,4.12
2018-07-11T06:55:17.673Z,3.95
2018-07-11T06:57:22.993Z,4.15
2018-07-11T06:59:28.475Z,4.42
2018-07-11T07:01:33.457Z,3.90
2018-07-11T07:03:38.800Z,3.90
2018-07-11T07:05:44.671Z,4.57
2018-07-11T07:07:50.079Z,3.67
2018-07-11T07:09:56.223Z,3.95
2018-07-11T07:12:01.519Z,4.10
2018-07-11T07:14:07.096Z,4.22
2018-07-11T07:16:12.443Z,3.85
2018-07-11T07:18:17.839Z,3.87
2018-07-11T07:20:23.189Z,4.23
2018-07-11T07:22:28.565Z,3.97
2018-07-11T07:24:33.964Z,4.20
2018-07-11T07:26:39.303Z,4.27
2018-07-11T07:28:44.756Z,3.73
2018-07-11T07:30:50.283Z,4.30
2018-07-11T07:32:56.656Z,4.30
2018-07-11T07:35:02.030Z,3.87
2018-07-11T07:37:07.432Z,3.97
2018-07-11T07:39:13.552Z,4.27
2018-07-11T07:41:18.856Z,4.17
2018-07-11T07:43:25.362Z,3.63
2018-07-11T07:45:30.699Z,4.20
2018-07-11T07:47:41.179Z,4.10
2018-07-11T07:49:46.965Z,3.43
2018-07-11T07:51:52.029Z,3.73
2018-07-11T07:53:57.372Z,3.30
2018-07-11T07:56:02.979Z,3.42
2018-07-11T07:58:08.366Z,4.10
2018-07-11T08:00:13.801Z,3.70
2018-07-11T08:02:19.978Z,3.83
2018-07-11T08:04:25.371Z,3.63
2018-07-11T08:06:30.785Z,4.00
2018-07-11T08:08:36.116Z,3.40
2018-07-11T08:10:41.546Z,4.23
2018-07-11T08:12:46.931Z,4.10
2018-07-11T08:14:52.264Z,3.53
2018-07-11T08:16:57.621Z,3.40
2018-07-11T08:19:02.934Z,3.83
2018-07-11T08:21:08.338Z,3.50
2018-07-11T08:23:45.503Z,3.92
2018-07-11T08:27:09.884Z,3.47
2018-07-11T08:29:23.238Z,3.17
2018-07-11T08:31:50.975Z,3.57
2018-07-11T08:34:27.489Z,3.07
2018-07-11T08:39:09.988Z,3.40
2018-07-11T08:43:36.058Z,3.30
2018-07-11T08:46:58.526Z,3.30
2018-07-11T08:52:00.871Z,3.92
2018-07-11T08:54:26.389Z,3.15
2018-07-11T08:59:00.304Z,2.87
2018-07-11T09:03:27.371Z,3.07
2018-07-11T09:06:01.877Z,3.40
2018-07-11T09:08:28.828Z,4.05
2018-07-11T09:12:54.091Z,3.40
2018-07-11T09:17:23.028Z,2.70
2018-07-11T09:20:00.807Z,2.50
2018-07-11T09:23:26.803Z,3.20
2018-07-11T09:25:32.147Z,2.77
2018-07-11T09:27:37.417Z,3.43
2018-07-11T09:29:43.485Z,3.37
2018-07-11T09:31:48.859Z,2.53
2018-07-11T09:33:54.140Z,2.33
2018-07-11T09:35:59.499Z,2.93
2018-07-11T09:38:04.918Z,3.00
2018-07-11T09:40:10.291Z,2.83
2018-07-11T09:42:15.733Z,2.93
2018-07-11T09:44:21.780Z,2.43
2018-07-11T09:46:27.319Z,2.80
2018-07-11T09:48:32.789Z,2.80
2018-07-11T09:50:38.147Z,2.50
2018-07-11T09:52:43.552Z,2.87
2018-07-11T09:54:48.974Z,2.57
2018-07-11T09:56:54.388Z,2.47
2018-07-11T09:58:59.935Z,2.70
2018-07-11T10:01:10.341Z,2.67
2018-07-11T10:03:15.826Z,3.10
2018-07-11T10:05:21.279Z,3.00
2018-07-11T10:07:27.726Z,2.83
2018-07-11T10:09:33.097Z,3.10
2018-07-11T10:11:38.431Z,2.70
2018-07-11T10:13:43.786Z,3.20
2018-07-11T10:15:49.178Z,2.97
2018-07-11T10:17:54.579Z,2.30
2018-07-11T10:20:00.074Z,2.50
2018-07-11T10:22:05.391Z,2.52
2018-07-11T10:24:10.850Z,2.75
2018-07-11T10:26:16.176Z,2.77
2018-07-11T10:28:21.896Z,2.50
2018-07-11T10:30:27.204Z,2.03
2018-07-11T10:32:32.592Z,2.97
2018-07-11T10:34:38.149Z,2.70
2018-07-11T10:36:43.532Z,2.40
2018-07-11T10:38:48.908Z,2.50
2018-07-11T10:40:54.344Z,2.70
2018-07-11T10:42:59.751Z,2.80
2018-07-11T10:45:05.158Z,2.55
2018-07-11T10:47:13.484Z,2.47
2018-07-11T10:49:18.560Z,2.90
2018-07-11T10:51:23.827Z,2.50
2018-07-11T10:53:29.222Z,2.63
2018-07-11T10:55:34.597Z,2.60
2018-07-11T10:57:40.082Z,2.40
2018-07-11T10:59:45.413Z,2.60
2018-07-11T11:01:51.290Z,2.57
2018-07-11T11:03:57.015Z,2.30
2018-07-11T11:06:02.419Z,2.20
2018-07-11T11:08:07.850Z,2.17
2018-07-11T11:10:13.204Z,2.23
2018-07-11T11:12:18.562Z,2.40
2018-07-11T11:14:24.014Z,2.47
2018-07-11T11:16:29.043Z,2.23
2018-07-11T11:18:34.350Z,2.30
2018-07-11T11:20:39.769Z,2.03
2018-07-11T11:22:45.163Z,1.93
2018-07-11T11:24:50.659Z,1.90
2018-07-11T11:26:57.013Z,2.05
2018-07-11T11:29:02.384Z,1.77
2018-07-11T11:31:07.783Z,1.77
2018-07-11T11:33:13.300Z,1.97
2018-07-11T11:35:18.369Z,1.80
2018-07-11T11:37:23.676Z,1.90
2018-07-11T11:39:29.070Z,1.80
2018-07-11T11:41:34.612Z,1.70
2018-07-11T11:43:39.948Z,1.97
2018-07-11T11:45:45.321Z,2.00
2018-07-11T11:47:54.708Z,1.57
2018-07-11T11:50:00.094Z,1.60
2018-07-11T11:52:05.498Z,1.97
2018-07-11T11:54:10.927Z,1.80
2018-07-11T11:56:16.309Z,1.60
2018-07-11T11:58:21.773Z,1.93
2018-07-11T12:00:27.169Z,1.70
2018-07-11T12:02:32.510Z,2.17
2018-07-11T12:04:37.949Z,1.80
2018-07-11T12:06:43.302Z,1.60
2018-07-11T12:08:48.679Z,2.10
2018-07-11T12:10:54.096Z,1.73
2018-07-11T12:12:59.422Z,2.00
2018-07-11T12:15:05.740Z,1.50
2018-07-11T12:17:11.106Z,2.03
2018-07-11T12:19:16.492Z,2.10
2018-07-11T12:21:21.846Z,1.50
2018-07-11T12:23:33.742Z,1.70
2018-07-11T12:25:54.692Z,2.00
2018-07-11T12:28:00.058Z,1.87
2018-07-11T12:30:05.431Z,2.00
2018-07-11T12:32:10.859Z,2.40
2018-07-11T12:34:16.321Z,1.60
2018-07-11T12:36:21.680Z,2.40
2018-07-11T12:38:27.253Z,2.00
2018-07-11T12:40:33.852Z,1.83
2018-07-11T12:42:39.399Z,2.20
2018-07-11T12:44:44.806Z,2.10
2018-07-11T12:46:50.006Z,2.00
2018-07-11T12:49:00.397Z,1.80
2018-07-11T12:51:05.802Z,1.80
2018-07-11T12:53:11.189Z,1.80
2018-07-11T12:55:16.634Z,1.93
2018-07-11T12:57:22.070Z,1.93
2018-07-11T12:59:27.472Z,2.00
2018-07-11T13:01:33.055Z,1.87
2018-07-11T13:03:38.616Z,1.70
2018-07-11T13:05:44.183Z,2.00
2018-07-11T13:07:49.772Z,1.90
2018-07-11T13:09:55.138Z,2.07
2018-07-11T13:12:00.933Z,2.03
2018-07-11T13:14:06.333Z,1.77
2018-07-11T13:16:11.738Z,1.92
2018-07-11T13:18:17.263Z,1.93
2018-07-11T13:20:22.705Z,1.97
2018-07-11T13:22:28.120Z,1.80
2018-07-11T13:24:33.418Z,1.80
2018-07-11T13:26:38.806Z,2.00
2018-07-11T13:28:44.146Z,1.80
2018-07-11T13:30:49.598Z,1.70
2018-07-11T13:32:54.873Z,1.80
2018-07-11T13:35:00.241Z,2.10
2018-07-11T13:37:05.647Z,1.92
2018-07-11T13:39:21.225Z,1.52
2018-07-11T13:41:26.512Z,1.73
2018-07-11T13:43:31.934Z,1.60
2018-07-11T13:45:37.339Z,1.80
2018-07-11T13:47:42.739Z,2.03
2018-07-11T13:49:48.217Z,1.97
2018-07-11T13:51:53.648Z,1.80
2018-07-11T13:53:59.110Z,2.53
2018-07-11T13:56:04.549Z,1.92
2018-07-11T13:58:10.653Z,2.15
2018-07-11T14:00:16.064Z,2.00
2018-07-11T14:02:21.497Z,1.70
2018-07-11T14:04:26.987Z,2.23
2018-07-11T14:06:32.369Z,1.73
2018-07-11T14:08:37.856Z,1.60
2018-07-11T14:10:43.261Z,1.83
2018-07-11T14:12:48.860Z,1.80
2018-07-11T14:14:54.364Z,1.87
2018-07-11T14:16:59.804Z,1.70
2018-07-11T14:19:05.265Z,1.60
2018-07-11T14:21:10.682Z,1.77
2018-07-11T14:23:26.625Z,2.27
2018-07-11T14:25:32.614Z,2.20
2018-07-11T14:27:45.559Z,1.60
2018-07-11T14:29:51.048Z,1.80
2018-07-11T14:31:59.626Z,1.70
2018-07-11T14:34:07.479Z,1.80
2018-07-11T14:36:12.962Z,2.07
2018-07-11T14:38:18.344Z,1.90
2018-07-11T14:40:24.233Z,1.83
2018-07-11T14:42:29.691Z,2.10
2018-07-11T14:44:35.058Z,1.90
2018-07-11T14:46:40.551Z,1.90
2018-07-11T14:48:45.991Z,1.73
2018-07-11T14:50:51.608Z,1.90
2018-07-11T14:52:57.984Z,1.50
2018-07-11T14:55:03.567Z,2.17
2018-07-11T14:57:09.037Z,2.30
2018-07-11T14:59:14.511Z,1.70
2018-07-11T15:01:19.932Z,1.97
2018-07-11T15:03:25.356Z,2.63
2018-07-11T15:05:30.754Z,3.20
2018-07-11T15:07:36.146Z,2.53
2018-07-11T15:09:41.550Z,1.83
2018-07-11T15:11:46.949Z,1.67
2018-07-11T15:13:52.919Z,1.83
2018-07-11T15:15:57.992Z,1.87
2018-07-11T15:18:03.343Z,2.08
2018-07-11T15:20:08.831Z,1.95
2018-07-11T15:22:14.295Z,1.80
2018-07-11T15:24:19.728Z,1.80
2018-07-11T15:26:26.073Z,2.17
2018-07-11T15:28:31.763Z,1.90
2018-07-11T15:30:37.227Z,1.80
2018-07-11T15:32:42.722Z,1.80
2018-07-11T15:34:48.144Z,2.03
2018-07-11T15:36:53.697Z,1.90
2018-07-11T15:38:58.941Z,2.00
2018-07-11T15:41:04.561Z,2.20
2018-07-11T15:43:10.226Z,2.00
2018-07-11T15:45:15.681Z,1.80
2018-07-11T15:47:22.844Z,1.87
2018-07-11T15:49:28.385Z,2.10
2018-07-11T15:51:33.985Z,2.03
2018-07-11T15:53:39.578Z,2.00
2018-07-11T15:55:45.008Z,1.80
2018-07-11T15:57:54.703Z,1.90
2018-07-11T16:00:13.687Z,1.60
2018-07-11T16:02:19.435Z,2.00
2018-07-11T16:04:29.917Z,1.70
2018-07-11T16:06:35.427Z,1.70
2018-07-11T16:08:51.838Z,2.70
2018-07-11T16:11:01.977Z,1.67
2018-07-11T16:13:07.287Z,2.02
2018-07-11T16:15:12.730Z,1.90
2018-07-11T16:17:18.244Z,1.77
2018-07-11T16:19:23.733Z,2.57
2018-07-11T16:21:29.169Z,1.87
2018-07-11T16:23:34.740Z,2.30
2018-07-11T16:25:41.471Z,2.40
2018-07-11T16:27:46.876Z,2.00
2018-07-11T16:29:52.411Z,1.73
2018-07-11T16:31:57.993Z,2.10
2018-07-11T16:34:03.570Z,1.67
2018-07-11T16:36:09.025Z,1.80
2018-07-11T16:38:14.420Z,1.82
2018-07-11T16:40:20.447Z,1.90
2018-07-11T16:42:25.922Z,1.90
2018-07-11T16:44:31.651Z,1.93
2018-07-11T16:46:37.124Z,1.90
2018-07-11T16:48:42.551Z,1.93
2018-07-11T16:50:48.047Z,1.80
2018-07-11T16:52:54.021Z,2.07
2018-07-11T16:54:59.779Z,2.17
2018-07-11T16:57:07.287Z,1.83
2018-07-11T16:59:15.549Z,1.70
2018-07-11T17:01:24.799Z,1.90
2018-07-11T17:03:30.064Z,1.70
2018-07-11T17:05:48.093Z,2.07
2018-07-11T17:07:59.560Z,1.70
2018-07-11T17:10:05.798Z,2.00
2018-07-11T17:12:13.695Z,1.80
2018-07-11T17:14:21.126Z,1.77
2018-07-11T17:17:06.931Z,1.80
2018-07-11T17:19:16.075Z,1.77
2018-07-11T17:21:52.485Z,1.63
2018-07-11T17:24:08.788Z,1.70
2018-07-11T17:26:14.182Z,1.60
2018-07-11T17:28:19.603Z,1.43
2018-07-11T17:30:25.104Z,2.00
2018-07-11T17:32:31.627Z,1.90
2018-07-11T17:34:39.507Z,2.00
2018-07-11T17:36:45.131Z,1.80
2018-07-11T17:38:50.649Z,1.70
2018-07-11T17:40:56.834Z,1.50
2018-07-11T17:43:02.214Z,1.73
2018-07-11T17:45:19.952Z,1.87
2018-07-11T17:47:25.771Z,1.63
2018-07-11T17:49:39.837Z,1.53
2018-07-11T17:52:16.153Z,1.50
2018-07-11T17:54:21.636Z,1.70
2018-07-11T17:57:05.574Z,2.27
2018-07-11T17:59:12.512Z,1.92
2018-07-11T18:01:18.099Z,1.97
2018-07-11T18:03:47.630Z,1.97
2018-07-11T18:06:04.520Z,2.30
2018-07-11T18:08:12.104Z,1.80
2018-07-11T18:10:33.123Z,1.77
2018-07-11T18:13:50.864Z,1.63
2018-07-11T18:16:23.848Z,1.63
2018-07-11T18:18:43.937Z,1.70
2018-07-11T18:21:13.352Z,1.77
2018-07-11T18:23:45.633Z,1.93
2018-07-11T18:26:12.362Z,1.70
2018-07-11T18:29:35.040Z,1.80
2018-07-11T18:34:28.283Z,1.53
2018-07-11T18:36:46.262Z,2.07
2018-07-11T18:39:32.484Z,1.77
2018-07-11T18:41:48.732Z,2.90
2018-07-11T18:45:01.578Z,2.40
2018-07-11T18:47:21.516Z,1.67
2018-07-11T18:49:42.467Z,2.00
2018-07-11T18:52:09.944Z,1.77
2018-07-11T18:54:27.428Z,1.87
2018-07-11T18:57:04.003Z,2.00
2018-07-11T18:59:26.011Z,1.90
2018-07-11T19:03:16.483Z,1.70
2018-07-11T19:06:42.301Z,1.60
2018-07-11T19:09:03.569Z,1.80
2018-07-11T19:11:21.979Z,1.60
2018-07-11T19:13:33.834Z,2.00
2018-07-11T19:15:46.453Z,1.60
2018-07-11T19:18:14.120Z,2.10
2018-07-11T19:20:34.367Z,1.77
2018-07-11T19:24:58.962Z,1.73
2018-07-11T19:27:50.923Z,1.92
2018-07-11T19:30:08.319Z,2.13
2018-07-11T19:32:37.454Z,2.30
2018-07-11T19:37:07.040Z,2.10
2018-07-11T19:39:41.854Z,1.80
2018-07-11T19:42:03.708Z,2.00
2018-07-11T19:44:28.343Z,1.93
2018-07-11T19:49:03.567Z,2.20
2018-07-11T19:52:26.229Z,1.80
2018-07-11T19:54:45.162Z,2.07
2018-07-11T19:56:50.656Z,1.77
2018-07-11T19:58:56.134Z,2.03
2018-07-11T20:01:01.653Z,1.83
2018-07-11T20:03:07.020Z,1.57
2018-07-11T20:05:12.422Z,2.10
2018-07-11T20:07:17.951Z,2.20
2018-07-11T20:09:23.384Z,2.37
2018-07-11T20:11:29.346Z,1.97
2018-07-11T20:13:34.779Z,2.10
2018-07-11T20:15:40.298Z,2.20
2018-07-11T20:17:45.729Z,2.33
2018-07-11T20:19:51.225Z,2.23
2018-07-11T20:21:56.791Z,2.40
2018-07-11T20:24:02.088Z,2.37
2018-07-11T20:26:07.799Z,2.20
2018-07-11T20:28:13.185Z,2.22
2018-07-11T20:30:18.611Z,2.50
2018-07-11T20:32:24.039Z,2.90
2018-07-11T20:34:29.405Z,2.67
2018-07-11T20:36:34.833Z,2.50
2018-07-11T20:38:40.539Z,4.13
2018-07-11T20:40:45.900Z,2.50
2018-07-11T20:42:51.829Z,2.10
2018-07-11T20:44:58.781Z,2.37
2018-07-11T20:47:04.891Z,2.12
2018-07-11T20:49:15.373Z,2.37
2018-07-11T20:51:20.797Z,2.50
